createdAt,value
2023-02-17T00:00:56.506Z,-0.35
2023-02-17T00:03:24.181Z,-0.22
2023-02-17T00:05:51.522Z,-0.52
2023-02-17T00:08:18.363Z,-0.30
2023-02-17T00:10:45.013Z,-0.21
2023-02-17T00:13:14.520Z,-0.40
2023-02-17T00:15:41.216Z,-0.43
2023-02-17T00:18:07.812Z,-0.30
2023-02-17T00:20:34.420Z,-0.45
2023-02-17T00:23:01.030Z,-0.10
2023-02-17T00:25:27.679Z,0.07
2023-02-17T00:27:54.322Z,-0.08
2023-02-17T00:30:21.127Z,-0.04
2023-02-17T00:32:48.207Z,0.07
2023-02-17T00:35:14.896Z,0.02
2023-02-17T00:37:45.462Z,-0.12
2023-02-17T00:40:13.378Z,0.06
2023-02-17T00:42:40.062Z,-0.09
2023-02-17T00:45:07.707Z,-0.14
2023-02-17T00:47:34.378Z,-0.08
2023-02-17T00:50:01.003Z,-0.06
2023-02-17T00:52:27.699Z,-0.31
2023-02-17T00:54:54.331Z,-0.76
2023-02-17T00:57:20.983Z,-0.36
2023-02-17T00:59:47.710Z,-0.36
2023-02-17T01:02:14.363Z,-0.25
2023-02-17T01:04:40.989Z,-0.52
2023-02-17T01:07:07.592Z,-0.44
2023-02-17T01:09:34.311Z,-0.53
2023-02-17T01:12:00.940Z,-0.11
2023-02-17T01:14:27.618Z,0.09
2023-02-17T01:16:55.864Z,-0.20
2023-02-17T01:19:22.500Z,-0.11
2023-02-17T01:21:49.371Z,0.08
2023-02-17T01:24:15.978Z,-0.28
2023-02-17T01:26:42.564Z,-0.29
2023-02-17T01:29:09.288Z,-0.16
2023-02-17T01:31:36.357Z,-0.09
2023-02-17T01:34:04.352Z,-0.11
2023-02-17T01:36:31.466Z,-0.35
2023-02-17T01:38:58.927Z,-0.17
2023-02-17T01:41:27.102Z,-0.22
2023-02-17T01:44:04.793Z,-0.25
2023-02-17T01:46:36.110Z,-0.22
2023-02-17T01:49:12.023Z,-0.28
2023-02-17T01:51:39.255Z,-0.09
2023-02-17T01:54:22.325Z,-0.36
2023-02-17T01:56:50.515Z,-0.24
2023-02-17T01:59:20.019Z,-0.01
2023-02-17T02:01:52.666Z,-0.26
2023-02-17T02:04:22.768Z,-0.11
2023-02-17T02:06:49.489Z,-0.14
2023-02-17T02:09:23.461Z,-0.15
2023-02-17T02:11:51.643Z,-0.39
2023-02-17T02:14:20.964Z,-0.16
2023-02-17T02:17:13.268Z,-0.27
2023-02-17T02:19:57.992Z,-0.34
2023-02-17T02:22:25.484Z,-0.34
2023-02-17T02:25:09.218Z,-0.33
2023-02-17T02:27:51.341Z,-0.45
2023-02-17T02:30:39.494Z,-0.26
2023-02-17T02:33:24.168Z,-0.24
2023-02-17T02:35:53.082Z,-0.23
2023-02-17T02:38:46.925Z,-0.48
2023-02-17T02:41:21.202Z,-0.46
2023-02-17T02:43:50.266Z,-0.48
2023-02-17T02:46:16.890Z,-0.70
2023-02-17T02:48:44.217Z,-0.23
2023-02-17T02:51:14.102Z,-0.20
2023-02-17T02:53:46.122Z,-0.53
2023-02-17T02:56:39.332Z,-0.10
2023-02-17T02:59:31.036Z,-0.02
2023-02-17T03:02:11.302Z,0.01
2023-02-17T03:04:48.682Z,-0.16
2023-02-17T03:07:22.017Z,-0.19
2023-02-17T03:09:51.707Z,-0.17
2023-02-17T03:12:19.647Z,-0.13
2023-02-17T03:14:50.057Z,-0.04
2023-02-17T03:17:17.187Z,0.07
2023-02-17T03:19:49.067Z,0.07
2023-02-17T03:22:29.826Z,0.02
2023-02-17T03:24:56.448Z,-0.01
2023-02-17T03:27:23.093Z,0.13
2023-02-17T03:29:49.764Z,-0.09
2023-02-17T03:32:18.512Z,0.03
2023-02-17T03:34:45.094Z,0.07
2023-02-17T03:37:11.871Z,0.37
2023-02-17T03:39:38.461Z,0.17
2023-02-17T03:42:05.147Z,0.15
2023-02-17T03:44:31.725Z,0.14
2023-02-17T03:46:58.287Z,0.21
2023-02-17T03:49:24.949Z,0.50
2023-02-17T03:51:51.495Z,0.47
2023-02-17T03:54:18.067Z,0.39
2023-02-17T03:56:44.690Z,0.11
2023-02-17T03:59:11.321Z,0.41
2023-02-17T04:01:37.965Z,0.27
2023-02-17T04:04:04.826Z,0.22
2023-02-17T04:06:31.498Z,0.32
2023-02-17T04:08:58.095Z,0.06
2023-02-17T04:11:24.729Z,-0.02
2023-02-17T04:13:51.278Z,0.21
2023-02-17T04:16:18.894Z,0.28
2023-02-17T04:18:45.859Z,0.04
2023-02-17T04:21:12.582Z,0.12
2023-02-17T04:23:39.684Z,0.11
2023-02-17T04:26:08.569Z,0.26
2023-02-17T04:28:38.496Z,0.26
2023-02-17T04:31:05.275Z,0.34
2023-02-17T04:33:31.975Z,0.28
2023-02-17T04:36:01.521Z,0.11
2023-02-17T04:38:32.146Z,0.25
2023-02-17T04:41:00.603Z,-0.01
2023-02-17T04:43:28.333Z,0.05
2023-02-17T04:45:55.285Z,-0.10
2023-02-17T04:48:22.350Z,0.06
2023-02-17T04:50:49.100Z,0.14
2023-02-17T04:53:15.914Z,0.11
2023-02-17T04:55:43.038Z,0.33
2023-02-17T04:58:10.819Z,0.16
2023-02-17T05:00:37.529Z,0.37
2023-02-17T05:03:04.159Z,0.39
2023-02-17T05:05:31.044Z,0.18
2023-02-17T05:07:57.690Z,0.30
2023-02-17T05:10:24.322Z,0.00
2023-02-17T05:12:51.024Z,0.15
2023-02-17T05:15:17.673Z,0.21
2023-02-17T05:17:44.339Z,0.38
2023-02-17T05:20:11.690Z,0.35
2023-02-17T05:22:38.535Z,0.64
2023-02-17T05:25:05.915Z,0.54
2023-02-17T05:27:33.424Z,0.67
2023-02-17T05:30:00.103Z,0.54
2023-02-17T05:32:27.148Z,0.63
2023-02-17T05:34:54.080Z,0.55
2023-02-17T05:37:20.843Z,0.66
2023-02-17T05:39:47.539Z,0.45
2023-02-17T05:42:14.220Z,0.61
2023-02-17T05:44:41.058Z,0.31
2023-02-17T05:47:07.743Z,0.45
2023-02-17T05:49:34.347Z,0.48
2023-02-17T05:52:02.376Z,0.64
2023-02-17T05:54:29.030Z,0.66
2023-02-17T05:56:55.666Z,0.53
2023-02-17T05:59:22.368Z,0.58
2023-02-17T06:01:49.024Z,0.39
2023-02-17T06:04:15.754Z,0.64
2023-02-17T06:06:42.446Z,0.69
2023-02-17T06:09:09.069Z,0.66
2023-02-17T06:11:35.687Z,0.61
2023-02-17T06:14:02.367Z,0.70
2023-02-17T06:16:29.132Z,0.79
2023-02-17T06:18:55.754Z,0.73
2023-02-17T06:21:22.429Z,0.70
2023-02-17T06:23:49.015Z,0.74
2023-02-17T06:26:15.821Z,0.59
2023-02-17T06:28:42.382Z,0.51
2023-02-17T06:31:09.054Z,0.59
2023-02-17T06:33:35.737Z,0.86
2023-02-17T06:36:02.592Z,0.83
2023-02-17T06:38:29.256Z,0.72
2023-02-17T06:40:55.879Z,0.74
2023-02-17T06:43:22.444Z,0.69
2023-02-17T06:45:49.041Z,0.89
2023-02-17T06:48:15.703Z,1.04
2023-02-17T06:50:42.327Z,1.00
2023-02-17T06:53:08.917Z,0.95
2023-02-17T06:55:37.232Z,0.96
2023-02-17T06:58:04.025Z,1.12
2023-02-17T07:00:30.941Z,1.12
2023-02-17T07:02:57.711Z,1.33
2023-02-17T07:05:24.354Z,1.54
2023-02-17T07:07:53.236Z,1.82
2023-02-17T07:10:20.172Z,1.90
2023-02-17T07:12:46.764Z,2.42
2023-02-17T07:15:14.364Z,2.44
2023-02-17T07:17:41.101Z,2.76
2023-02-17T07:20:09.318Z,2.99
2023-02-17T07:22:36.021Z,3.02
2023-02-17T07:25:02.684Z,2.69
2023-02-17T07:27:29.312Z,3.03
2023-02-17T07:29:55.962Z,3.05
2023-02-17T07:32:22.721Z,3.05
2023-02-17T07:34:49.406Z,3.33
2023-02-17T07:37:16.073Z,2.58
2023-02-17T07:39:42.682Z,2.71
2023-02-17T07:42:11.466Z,2.40
2023-02-17T07:44:39.016Z,2.60
2023-02-17T07:47:05.663Z,2.92
2023-02-17T07:49:32.274Z,3.51
2023-02-17T07:51:58.940Z,3.28
2023-02-17T07:54:25.563Z,4.19
2023-02-17T07:56:52.121Z,4.13
2023-02-17T07:59:18.847Z,4.28
2023-02-17T08:01:45.523Z,4.60
2023-02-17T08:04:12.215Z,4.44
2023-02-17T08:06:42.222Z,4.75
2023-02-17T08:09:28.733Z,4.57
2023-02-17T08:12:14.059Z,4.78
2023-02-17T08:14:40.762Z,4.97
2023-02-17T08:17:07.674Z,4.89
2023-02-17T08:19:47.560Z,4.98
2023-02-17T08:22:17.220Z,5.15
2023-02-17T08:24:44.389Z,4.99
2023-02-17T08:27:11.126Z,4.70
2023-02-17T08:29:37.988Z,5.13
2023-02-17T08:32:04.841Z,4.94
2023-02-17T08:34:34.499Z,4.94
2023-02-17T08:37:02.222Z,5.25
2023-02-17T08:39:29.416Z,5.38
2023-02-17T08:41:56.716Z,5.46
2023-02-17T08:44:23.388Z,5.24
2023-02-17T08:46:51.654Z,4.99
2023-02-17T08:49:21.191Z,5.48
2023-02-17T08:51:48.233Z,5.32
2023-02-17T08:54:15.392Z,5.46
2023-02-17T08:56:43.153Z,5.58
2023-02-17T08:59:11.440Z,5.28
2023-02-17T09:01:39.022Z,5.46
2023-02-17T09:04:07.541Z,5.50
2023-02-17T09:06:39.939Z,5.72
2023-02-17T09:09:09.334Z,5.37
2023-02-17T09:11:36.379Z,5.47
2023-02-17T09:14:04.008Z,5.70
2023-02-17T09:16:30.995Z,5.74
2023-02-17T09:18:57.700Z,5.57
2023-02-17T09:21:24.784Z,5.69
2023-02-17T09:23:53.703Z,5.79
2023-02-17T09:26:21.138Z,5.42
2023-02-17T09:28:48.173Z,5.34
2023-02-17T09:31:17.137Z,5.88
2023-02-17T09:33:44.615Z,5.84
2023-02-17T09:36:14.902Z,5.29
2023-02-17T09:38:42.156Z,5.99
2023-02-17T09:41:29.075Z,6.05
2023-02-17T09:43:55.978Z,5.82
2023-02-17T09:46:36.700Z,5.67
2023-02-17T09:49:15.650Z,6.09
2023-02-17T09:51:44.378Z,6.07
2023-02-17T09:54:41.522Z,6.32
2023-02-17T09:57:15.770Z,6.23
2023-02-17T09:59:48.844Z,5.39
2023-02-17T10:02:39.273Z,6.29
2023-02-17T10:05:09.463Z,6.41
2023-02-17T10:07:43.962Z,6.40
2023-02-17T10:10:18.405Z,5.97
2023-02-17T10:12:50.208Z,6.35
2023-02-17T10:15:21.002Z,6.41
2023-02-17T10:18:17.166Z,6.35
2023-02-17T10:20:57.059Z,6.34
2023-02-17T10:23:26.336Z,6.47
2023-02-17T10:25:58.862Z,6.48
2023-02-17T10:28:28.498Z,6.52
2023-02-17T10:31:13.213Z,6.53
2023-02-17T10:33:56.441Z,6.37
2023-02-17T10:36:51.983Z,6.42
2023-02-17T10:39:24.733Z,6.53
2023-02-17T10:41:54.807Z,6.40
2023-02-17T10:44:25.032Z,6.49
2023-02-17T10:46:54.096Z,6.27
2023-02-17T10:49:32.886Z,6.64
2023-02-17T10:52:03.074Z,5.60
2023-02-17T10:54:36.011Z,6.73
2023-02-17T10:57:07.806Z,6.61
2023-02-17T10:59:41.061Z,6.66
2023-02-17T11:02:28.028Z,6.81
2023-02-17T11:04:55.203Z,6.60
2023-02-17T11:07:44.142Z,6.64
2023-02-17T11:10:40.206Z,6.82
2023-02-17T11:13:32.710Z,6.80
2023-02-17T11:16:00.259Z,6.76
2023-02-17T11:18:32.557Z,6.96
2023-02-17T11:21:08.464Z,6.99
2023-02-17T11:23:35.921Z,7.03
2023-02-17T11:26:17.039Z,7.05
2023-02-17T11:28:43.617Z,6.96
2023-02-17T11:31:28.188Z,7.00
2023-02-17T11:33:56.974Z,6.56
2023-02-17T11:36:25.531Z,7.06
2023-02-17T11:38:52.405Z,7.07
2023-02-17T11:41:20.362Z,6.79
2023-02-17T11:43:59.246Z,7.08
2023-02-17T11:46:31.721Z,7.05
2023-02-17T11:49:13.560Z,7.07
2023-02-17T11:51:46.414Z,7.13
2023-02-17T11:54:16.043Z,7.13
2023-02-17T11:56:57.653Z,6.94
2023-02-17T11:59:51.994Z,7.06
2023-02-17T12:02:44.315Z,6.96
2023-02-17T12:05:19.079Z,7.09
2023-02-17T12:07:53.840Z,6.96
2023-02-17T12:10:51.855Z,6.92
2023-02-17T12:13:42.650Z,7.14
2023-02-17T12:16:18.350Z,7.16
2023-02-17T12:18:58.391Z,6.96
2023-02-17T12:21:43.780Z,6.96
2023-02-17T12:24:10.409Z,7.11
2023-02-17T12:26:42.037Z,6.89
2023-02-17T12:29:31.248Z,6.96
2023-02-17T12:32:20.328Z,6.87
2023-02-17T12:34:53.898Z,7.08
2023-02-17T12:37:28.835Z,7.15
2023-02-17T12:40:04.083Z,7.18
2023-02-17T12:42:37.133Z,7.01
2023-02-17T12:45:16.080Z,7.23
2023-02-17T12:47:59.416Z,6.62
2023-02-17T12:50:28.081Z,7.04
2023-02-17T12:52:59.378Z,6.97
2023-02-17T12:55:36.453Z,7.16
2023-02-17T12:58:15.931Z,6.79
2023-02-17T13:00:47.081Z,6.99
2023-02-17T13:03:13.848Z,7.00
2023-02-17T13:05:51.748Z,6.99
2023-02-17T13:08:58.964Z,7.05
2023-02-17T13:11:35.571Z,7.28
2023-02-17T13:14:27.393Z,6.85
2023-02-17T13:16:54.488Z,6.81
2023-02-17T13:19:32.030Z,7.29
2023-02-17T13:22:02.248Z,7.34
2023-02-17T13:24:50.580Z,7.09
2023-02-17T13:27:30.144Z,7.36
2023-02-17T13:30:29.045Z,7.37
2023-02-17T13:33:20.535Z,7.44
2023-02-17T13:35:47.490Z,7.03
2023-02-17T13:38:25.375Z,7.40
2023-02-17T13:40:52.543Z,6.96
2023-02-17T13:43:19.943Z,7.45
2023-02-17T13:45:58.077Z,7.35
2023-02-17T13:48:28.720Z,7.46
2023-02-17T13:51:02.603Z,7.47
2023-02-17T13:53:40.826Z,7.06
2023-02-17T13:56:09.718Z,7.54
2023-02-17T13:58:41.302Z,7.34
2023-02-17T14:01:16.192Z,7.59
2023-02-17T14:03:47.560Z,7.55
2023-02-17T14:06:36.870Z,7.48
2023-02-17T14:09:20.665Z,7.54
2023-02-17T14:11:47.537Z,7.33
2023-02-17T14:14:14.367Z,7.52
2023-02-17T14:16:45.341Z,7.18
2023-02-17T14:19:14.925Z,7.33
2023-02-17T14:22:04.946Z,7.77
2023-02-17T14:24:37.446Z,7.69
2023-02-17T14:27:13.894Z,7.33
2023-02-17T14:29:43.321Z,7.60
2023-02-17T14:32:33.154Z,7.86
2023-02-17T14:35:12.897Z,7.74
2023-02-17T14:37:41.433Z,7.94
2023-02-17T14:40:23.367Z,7.87
2023-02-17T14:42:50.661Z,7.95
2023-02-17T14:45:18.901Z,7.84
2023-02-17T14:47:46.669Z,7.86
2023-02-17T14:50:13.845Z,8.04
2023-02-17T14:52:49.962Z,7.95
2023-02-17T14:55:35.020Z,7.81
2023-02-17T14:58:02.126Z,7.88
2023-02-17T15:00:28.922Z,7.83
2023-02-17T15:02:55.601Z,7.76
2023-02-17T15:05:22.299Z,8.00
2023-02-17T15:07:49.551Z,7.77
2023-02-17T15:10:25.544Z,8.10
2023-02-17T15:12:52.291Z,7.38
2023-02-17T15:15:20.060Z,7.94
2023-02-17T15:17:46.993Z,7.77
2023-02-17T15:20:15.944Z,8.19
2023-02-17T15:22:44.313Z,7.67
2023-02-17T15:25:22.187Z,8.23
2023-02-17T15:27:49.617Z,7.71
2023-02-17T15:30:18.705Z,8.30
2023-02-17T15:32:46.774Z,8.32
2023-02-17T15:35:17.473Z,8.17
2023-02-17T15:37:44.122Z,8.27
2023-02-17T15:40:19.212Z,8.13
2023-02-17T15:42:50.108Z,8.28
2023-02-17T15:45:20.235Z,8.32
2023-02-17T15:47:48.335Z,8.09
2023-02-17T15:50:20.379Z,8.29
2023-02-17T15:52:47.475Z,8.13
2023-02-17T15:55:14.393Z,8.23
2023-02-17T15:57:46.666Z,8.23
2023-02-17T16:00:19.782Z,8.06
2023-02-17T16:02:46.779Z,8.32
2023-02-17T16:05:15.831Z,8.20
2023-02-17T16:07:42.562Z,8.38
2023-02-17T16:10:12.051Z,7.98
2023-02-17T16:12:40.130Z,8.18
2023-02-17T16:15:11.631Z,8.20
2023-02-17T16:17:38.654Z,8.08
2023-02-17T16:20:35.281Z,8.21
2023-02-17T16:23:02.831Z,8.25
2023-02-17T16:25:29.813Z,8.28
2023-02-17T16:27:57.230Z,8.59
2023-02-17T16:30:32.164Z,8.55
2023-02-17T16:32:59.063Z,8.46
2023-02-17T16:35:30.790Z,8.62
2023-02-17T16:38:02.816Z,8.59
2023-02-17T16:40:31.946Z,8.70
2023-02-17T16:42:58.760Z,8.70
2023-02-17T16:45:28.009Z,8.72
2023-02-17T16:47:58.154Z,8.75
2023-02-17T16:50:28.034Z,8.85
2023-02-17T16:52:58.340Z,8.69
2023-02-17T16:55:28.321Z,8.95
2023-02-17T16:57:55.587Z,8.95
2023-02-17T17:00:26.349Z,8.90
2023-02-17T17:02:53.398Z,8.81
2023-02-17T17:05:20.905Z,8.77
2023-02-17T17:07:47.959Z,8.80
2023-02-17T17:10:20.904Z,8.81
2023-02-17T17:12:47.615Z,8.49
2023-02-17T17:15:14.782Z,8.82
2023-02-17T17:17:45.832Z,8.88
2023-02-17T17:20:16.464Z,8.89
2023-02-17T17:22:43.665Z,8.89
2023-02-17T17:25:10.519Z,8.75
2023-02-17T17:27:37.463Z,8.71
2023-02-17T17:30:06.477Z,8.91
2023-02-17T17:32:33.197Z,8.67
2023-02-17T17:34:59.790Z,8.73
2023-02-17T17:37:26.434Z,8.69
2023-02-17T17:39:53.055Z,8.85
2023-02-17T17:42:19.771Z,8.57
2023-02-17T17:44:46.345Z,8.82
2023-02-17T17:47:24.784Z,8.73
2023-02-17T17:49:56.238Z,8.66
2023-02-17T17:52:22.861Z,8.67
2023-02-17T17:54:49.516Z,8.47
2023-02-17T17:57:16.214Z,8.60
2023-02-17T17:59:42.855Z,8.53
2023-02-17T18:02:09.490Z,8.65
2023-02-17T18:04:36.140Z,8.61
2023-02-17T18:07:03.408Z,8.67
2023-02-17T18:09:34.974Z,8.74
2023-02-17T18:12:05.686Z,8.54
2023-02-17T18:14:33.050Z,8.71
2023-02-17T18:16:59.773Z,8.52
2023-02-17T18:19:26.735Z,8.67
2023-02-17T18:21:53.335Z,8.49
2023-02-17T18:24:19.978Z,8.50
2023-02-17T18:26:46.571Z,8.55
2023-02-17T18:29:13.247Z,8.52
2023-02-17T18:31:40.149Z,8.16
2023-02-17T18:34:06.911Z,8.38
2023-02-17T18:36:33.721Z,8.22
2023-02-17T18:39:00.492Z,8.27
2023-02-17T18:41:29.833Z,8.19
2023-02-17T18:43:57.570Z,8.18
2023-02-17T18:46:26.900Z,8.26
2023-02-17T18:48:55.362Z,8.10
2023-02-17T18:51:23.918Z,8.24
2023-02-17T18:53:51.216Z,7.96
2023-02-17T18:56:22.500Z,8.22
2023-02-17T18:58:50.870Z,8.18
2023-02-17T19:01:22.810Z,7.96
2023-02-17T19:03:49.740Z,8.20
2023-02-17T19:06:20.573Z,8.20
2023-02-17T19:08:47.930Z,8.09
2023-02-17T19:11:16.382Z,8.18
2023-02-17T19:13:43.083Z,7.97
2023-02-17T19:16:12.498Z,8.20
2023-02-17T19:18:40.538Z,7.90
2023-02-17T19:21:07.545Z,8.21
2023-02-17T19:23:35.968Z,8.21
2023-02-17T19:26:05.644Z,8.23
2023-02-17T19:28:33.474Z,8.03
2023-02-17T19:31:00.263Z,8.20
2023-02-17T19:33:27.468Z,8.28
2023-02-17T19:35:54.347Z,8.16
2023-02-17T19:38:21.169Z,8.33
2023-02-17T19:40:47.879Z,8.18
2023-02-17T19:43:14.528Z,8.19
2023-02-17T19:45:41.230Z,8.11
2023-02-17T19:48:09.237Z,8.46
2023-02-17T19:50:37.910Z,8.50
2023-02-17T19:53:04.877Z,8.36
2023-02-17T19:55:31.534Z,8.04
2023-02-17T19:57:58.179Z,8.52
2023-02-17T20:00:25.090Z,8.34
2023-02-17T20:02:51.851Z,8.34
2023-02-17T20:05:18.522Z,8.62
2023-02-17T20:07:45.243Z,8.29
2023-02-17T20:10:12.502Z,8.58
2023-02-17T20:12:39.373Z,8.64
2023-02-17T20:15:07.757Z,8.35
2023-02-17T20:17:34.530Z,8.46
2023-02-17T20:20:01.254Z,8.40
2023-02-17T20:22:28.005Z,8.67
2023-02-17T20:24:54.707Z,8.67
2023-02-17T20:27:21.664Z,8.71
2023-02-17T20:29:48.439Z,8.61
2023-02-17T20:32:15.187Z,8.50
2023-02-17T20:34:41.999Z,8.49
2023-02-17T20:37:09.660Z,8.63
2023-02-17T20:39:38.537Z,8.65
2023-02-17T20:42:05.856Z,8.66
2023-02-17T20:44:32.597Z,8.49
2023-02-17T20:46:59.750Z,8.68
2023-02-17T20:49:26.722Z,8.50
2023-02-17T20:51:54.109Z,8.66
2023-02-17T20:54:20.993Z,8.49
2023-02-17T20:56:48.647Z,8.61
2023-02-17T20:59:15.415Z,8.50
2023-02-17T21:01:42.843Z,8.68
2023-02-17T21:04:10.486Z,8.52
2023-02-17T21:06:41.176Z,8.59
2023-02-17T21:09:14.155Z,8.52
2023-02-17T21:11:41.434Z,8.44
2023-02-17T21:14:08.174Z,8.51
2023-02-17T21:16:35.855Z,8.43
2023-02-17T21:19:03.150Z,8.59
2023-02-17T21:21:31.089Z,8.64
2023-02-17T21:23:58.262Z,8.71
2023-02-17T21:26:24.966Z,8.65
2023-02-17T21:28:51.639Z,8.50
2023-02-17T21:31:19.032Z,8.60
2023-02-17T21:33:45.794Z,8.68
2023-02-17T21:36:15.272Z,8.64
2023-02-17T21:38:42.067Z,8.58
2023-02-17T21:41:14.903Z,8.52
2023-02-17T21:44:00.591Z,8.34
2023-02-17T21:46:27.964Z,8.45
2023-02-17T21:48:55.357Z,8.34
2023-02-17T21:51:21.981Z,8.34
2023-02-17T21:53:48.806Z,8.13
2023-02-17T21:56:15.732Z,8.29
2023-02-17T21:58:49.714Z,7.74
2023-02-17T22:01:17.565Z,8.20
2023-02-17T22:03:44.474Z,8.04
2023-02-17T22:06:17.844Z,8.20
2023-02-17T22:08:45.223Z,8.22
2023-02-17T22:11:20.450Z,8.22
2023-02-17T22:13:47.618Z,8.21
2023-02-17T22:16:14.735Z,8.23
2023-02-17T22:18:41.690Z,8.16
2023-02-17T22:21:13.647Z,7.96
2023-02-17T22:23:41.391Z,8.15
2023-02-17T22:26:09.415Z,8.12
2023-02-17T22:28:36.869Z,8.10
2023-02-17T22:31:04.377Z,8.07
2023-02-17T22:33:31.093Z,8.05
2023-02-17T22:36:10.338Z,8.06
2023-02-17T22:38:37.582Z,7.82
2023-02-17T22:41:13.314Z,7.82
2023-02-17T22:43:41.793Z,7.87
2023-02-17T22:46:10.829Z,7.96
2023-02-17T22:48:39.030Z,7.95
2023-02-17T22:51:11.551Z,7.92
2023-02-17T22:53:38.821Z,7.81
2023-02-17T22:56:06.636Z,7.90
2023-02-17T22:58:33.801Z,7.92
2023-02-17T23:01:11.144Z,7.88
2023-02-17T23:03:37.961Z,7.76
2023-02-17T23:06:14.441Z,7.87
2023-02-17T23:08:43.123Z,7.77
2023-02-17T23:11:12.875Z,7.80
2023-02-17T23:13:40.091Z,7.66
2023-02-17T23:16:08.142Z,7.79
2023-02-17T23:18:35.971Z,7.81
2023-02-17T23:21:12.201Z,7.85
2023-02-17T23:23:39.285Z,7.86
2023-02-17T23:26:06.564Z,7.70
2023-02-17T23:28:33.753Z,7.85
2023-02-17T23:31:00.600Z,7.60
2023-02-17T23:33:27.328Z,7.65
2023-02-17T23:35:53.929Z,7.76
2023-02-17T23:38:21.490Z,7.70
2023-02-17T23:40:52.903Z,7.88
2023-02-17T23:43:20.263Z,7.64
2023-02-17T23:45:47.039Z,7.89
2023-02-17T23:48:14.012Z,7.88
2023-02-17T23:50:40.830Z,7.70
2023-02-17T23:53:08.044Z,7.83
2023-02-17T23:55:34.681Z,7.88
2023-02-17T23:58:01.628Z,7.65
